Time;durP1;ratioP1;P1;durP2;ratioP2;P2;SDS_P1;SDS_P2;PMS_P1;PMS_P2;Temp;Humidity;BMP_temperature;BMP_pressure;BME280_temperature;BME280_humidity;BME280_pressure;Samples;Min_cycle;Max_cycle;Signal;HPM_P1;HPM_P2
2022/09/02 00:01:30;;;;;;;1.45;1.35;;;19.70;45.10;;;;;;4994985;28;20038;-51
2022/09/02 00:04:04;;;;;;;;;;;19.70;45.30;;;;;;5001426;28;20117;-49
2022/09/02 00:06:32;;;;;;;1.63;1.10;;;19.70;44.30;;;;;;5000309;28;19921;-50
2022/09/02 00:08:59;;;;;;;3.15;1.30;;;19.70;44.70;;;;;;4998806;28;20057;-50
2022/09/02 00:11:29;;;;;;;1.67;1.30;;;19.70;45.00;;;;;;5009545;28;20042;-52
2022/09/02 00:14:01;;;;;;;1.65;1.40;;;19.60;45.30;;;;;;5004431;28;20545;-48
2022/09/02 00:16:33;;;;;;;2.28;1.23;;;19.60;45.20;;;;;;5004648;28;20042;-50
2022/09/02 00:19:03;;;;;;;2.78;1.80;;;19.60;45.30;;;;;;4990412;28;20108;-51
2022/09/02 00:21:36;;;;;;;1.70;1.60;;;19.60;45.30;;;;;;4988701;28;20125;-51
2022/09/02 00:24:06;;;;;;;;;;;19.60;45.40;;;;;;4999571;28;20620;-50
2022/09/02 00:26:33;;;;;;;1.20;0.88;;;19.70;44.80;;;;;;5006386;28;19972;-49
2022/09/02 00:29:00;;;;;;;1.30;1.20;;;19.60;45.10;;;;;;5001081;28;20398;-50
2022/09/02 00:31:29;;;;;;;1.40;1.15;;;19.60;45.30;;;;;;5008667;28;20046;-50
2022/09/02 00:33:56;;;;;;;1.38;1.27;;;19.60;45.40;;;;;;5006183;28;20038;-50
2022/09/02 00:36:23;;;;;;;1.35;1.25;;;19.60;45.60;;;;;;5004754;28;20050;-50
2022/09/02 00:38:50;;;;;;;1.27;1.17;;;19.60;45.80;;;;;;5000330;28;20652;-50
2022/09/02 00:41:23;;;;;;;1.42;1.17;;;19.60;45.90;;;;;;5007629;28;20518;-51
2022/09/02 00:43:55;;;;;;;2.22;1.38;;;19.60;46.10;;;;;;5004256;28;20046;-49
2022/09/02 00:46:24;;;;;;;1.17;1.10;;;19.60;46.20;;;;;;5005545;28;20038;-49
2022/09/02 00:49:07;;;;;;;2.03;1.05;;;19.60;45.90;;;;;;5008630;28;20034;-50
2022/09/02 00:51:46;;;;;;;1.55;1.30;;;19.60;46.40;;;;;;5010509;28;20128;-51
2022/09/02 00:54:21;;;;;;;2.97;1.40;;;19.60;46.00;;;;;;5008720;28;20050;-50
2022/09/02 00:56:55;;;;;;;2.50;1.20;;;19.60;45.90;;;;;;4995982;28;20042;-53
2022/09/02 01:00:06;;;;;;;1.50;1.30;;;19.60;45.90;;;;;;5000628;28;20105;-49
2022/09/02 01:02:36;;;;;;;1.60;1.50;;;19.60;46.40;;;;;;4989767;28;20526;-51
2022/09/02 01:05:06;;;;;;;3.10;1.02;;;19.50;45.80;;;;;;5001240;28;20062;-51
2022/09/02 01:07:42;;;;;;;1.17;1.08;;;19.50;46.00;;;;;;5010307;28;20049;-50
2022/09/02 01:10:17;;;;;;;1.67;1.20;;;19.50;46.10;;;;;;5006716;28;20542;-51
2022/09/02 01:12:44;;;;;;;1.58;1.30;;;19.50;46.40;;;;;;5011278;28;20038;-52
2022/09/02 01:15:14;;;;;;;1.35;1.15;;;19.50;46.10;;;;;;5003559;28;20121;-50
2022/09/02 01:17:46;;;;;;;1.85;1.27;;;19.50;46.40;;;;;;5011794;28;20116;-49
2022/09/02 01:20:21;;;;;;;1.60;1.40;;;19.40;46.50;;;;;;5005213;28;20046;-50
2022/09/02 01:22:53;;;;;;;1.23;1.13;;;19.40;46.40;;;;;;5003858;28;20056;-50
2022/09/02 01:25:26;;;;;;;1.55;1.23;;;19.40;46.30;;;;;;5002638;28;20100;-50
2022/09/02 01:28:05;;;;;;;2.05;1.48;;;19.40;46.50;;;;;;5009150;28;20040;-50
2022/09/02 01:30:40;;;;;;;1.67;1.55;;;19.30;46.90;;;;;;5010343;28;20050;-49
2022/09/02 01:33:07;;;;;;;1.25;1.25;;;19.30;46.70;;;;;;5002541;28;20054;-49
2022/09/02 01:35:38;;;;;;;1.48;1.38;;;19.30;46.50;;;;;;5005465;28;20064;-50
2022/09/02 01:38:10;;;;;;;1.80;1.52;;;19.30;46.70;;;;;;4994705;28;20046;-53
2022/09/02 01:40:37;;;;;;;2.47;1.42;;;19.30;47.10;;;;;;5001903;28;20049;-49
2022/09/02 01:43:12;;;;;;;2.33;1.20;;;19.20;46.70;;;;;;5006980;28;20049;-53
2022/09/02 01:45:42;;;;;;;2.15;1.58;;;19.20;47.10;;;;;;4990570;28;20661;-50
2022/09/02 01:48:12;;;;;;;1.92;1.38;;;19.20;47.10;;;;;;5003004;28;20129;-50
2022/09/02 01:50:58;;;;;;;1.48;1.35;;;19.10;47.10;;;;;;5014210;28;20043;-50
2022/09/02 01:53:28;;;;;;;1.02;0.95;;;19.10;47.70;;;;;;5007006;28;20536;-50
2022/09/02 01:55:56;;;;;;;3.30;1.23;;;19.10;47.30;;;;;;4991517;28;20548;-51
2022/09/02 01:58:29;;;;;;;2.30;1.20;;;19.00;47.40;;;;;;4994098;28;20058;-52
2022/09/02 02:00:58;;;;;;;1.30;1.20;;;19.00;47.50;;;;;;4999738;28;20530;-50
2022/09/02 02:03:25;;;;;;;1.63;1.50;;;18.90;47.60;;;;;;5010510;28;20391;-49
2022/09/02 02:05:59;;;;;;;1.98;1.52;;;18.90;47.80;;;;;;5010363;28;20042;-49
2022/09/02 02:08:27;;;;;;;1.33;1.15;;;18.90;47.90;;;;;;5004066;28;20466;-53
2022/09/02 02:10:56;;;;;;;1.35;0.98;;;18.90;48.00;;;;;;5006383;28;20049;-51
2022/09/02 02:13:25;;;;;;;2.28;1.60;;;18.90;48.00;;;;;;4990592;28;20061;-49
2022/09/02 02:15:51;;;;;;;1.42;1.33;;;18.90;48.20;;;;;;4990436;28;20084;-49
2022/09/02 02:18:19;;;;;;;1.20;1.10;;;18.80;48.30;;;;;;5003280;28;20121;-48
2022/09/02 02:20:47;;;;;;;2.00;1.40;;;18.80;48.40;;;;;;5003477;28;20514;-50
2022/09/02 02:23:18;;;;;;;2.45;1.65;;;18.80;48.40;;;;;;5009006;28;20141;-51
2022/09/02 02:25:45;;;;;;;1.25;1.15;;;18.80;48.50;;;;;;4998573;28;20414;-49
2022/09/02 02:28:13;;;;;;;1.20;1.10;;;18.80;48.50;;;;;;5002839;28;20407;-48
2022/09/02 02:30:40;;;;;;;1.38;1.27;;;18.70;48.60;;;;;;5001620;28;20450;-53
2022/09/02 02:33:11;;;;;;;1.58;1.42;;;18.70;48.60;;;;;;5009274;28;20097;-49
2022/09/02 02:35:41;;;;;;;1.58;1.17;;;18.70;48.80;;;;;;5003162;28;20044;-49
2022/09/02 02:38:10;;;;;;;1.33;1.23;;;18.70;48.80;;;;;;5007778;28;20184;-51
2022/09/02 02:40:40;;;;;;;2.88;1.45;;;18.70;49.20;;;;;;5008376;28;20072;-50
2022/09/02 02:43:09;;;;;;;3.28;1.50;;;18.70;48.90;;;;;;5010591;28;20038;-50
2022/09/02 02:45:37;;;;;;;1.67;1.45;;;18.70;49.00;;;;;;5003441;28;20049;-50
2022/09/02 02:48:06;;;;;;;2.15;1.30;;;18.70;49.10;;;;;;5005495;28;20034;-49
2022/09/02 02:50:43;;;;;;;1.42;1.33;;;18.70;49.20;;;;;;4989103;28;20042;-49
2022/09/02 02:53:11;;;;;;;1.58;1.10;;;18.70;49.90;;;;;;4992942;28;20049;-50
2022/09/02 02:55:39;;;;;;;1.90;1.70;;;18.70;49.40;;;;;;5002248;28;20046;-49
2022/09/02 02:58:06;;;;;;;1.25;1.17;;;18.70;49.40;;;;;;4992020;28;20077;-52
2022/09/02 03:00:37;;;;;;;1.50;1.40;;;18.70;49.60;;;;;;5009795;28;20038;-49
2022/09/02 03:03:09;;;;;;;1.17;1.08;;;18.70;49.60;;;;;;5003390;28;20042;-50
2022/09/02 03:05:40;;;;;;;1.50;1.40;;;18.70;49.80;;;;;;4995923;28;20454;-50
2022/09/02 03:08:09;;;;;;;3.25;1.50;;;18.70;49.70;;;;;;4990752;28;20089;-49
2022/09/02 03:10:40;;;;;;;1.20;1.10;;;18.70;50.00;;;;;;4994904;28;20050;-49
2022/09/02 03:13:10;;;;;;;1.15;1.05;;;18.70;50.00;;;;;;4999246;28;20466;-51
2022/09/02 03:15:38;;;;;;;2.63;1.13;;;18.70;50.30;;;;;;5007790;28;20046;-50
2022/09/02 03:18:06;;;;;;;2.05;1.05;;;18.70;50.20;;;;;;5006814;28;20050;-50
2022/09/02 03:20:35;;;;;;;2.10;1.63;;;18.60;50.20;;;;;;4988887;28;20046;-47
2022/09/02 03:23:06;;;;;;;1.40;1.30;;;18.70;50.40;;;;;;5003497;28;20121;-50
2022/09/02 03:25:43;;;;;;;1.92;1.10;;;18.60;50.30;;;;;;5002060;28;20056;-51
2022/09/02 03:28:25;;;;;;;1.60;1.40;;;18.70;50.50;;;;;;4989077;28;20447;-50
2022/09/02 03:30:59;;;;;;;2.17;1.48;;;18.70;50.50;;;;;;5005289;28;20406;-50
2022/09/02 03:33:31;;;;;;;1.27;1.17;;;18.70;50.60;;;;;;5006048;28;20064;-53
2022/09/02 03:36:00;;;;;;;1.42;1.33;;;18.70;50.70;;;;;;4991209;28;20089;-50
2022/09/02 03:38:30;;;;;;;4.13;1.38;;;18.70;50.50;;;;;;4992831;28;20084;-49
2022/09/02 03:41:08;;;;;;;1.20;1.10;;;18.70;50.40;;;;;;5004688;28;20510;-51
2022/09/02 03:43:37;;;;;;;1.27;1.15;;;18.70;50.60;;;;;;5000939;28;20050;-51
2022/09/02 03:46:04;;;;;;;1.45;1.10;;;18.70;50.30;;;;;;5007578;28;20524;-51
2022/09/02 03:48:33;;;;;;;1.42;1.05;;;18.70;50.40;;;;;;5004433;28;20472;-49
2022/09/02 03:51:04;;;;;;;1.30;1.20;;;18.70;50.30;;;;;;5001674;28;20458;-49
2022/09/02 03:53:32;;;;;;;1.60;1.13;;;18.60;50.30;;;;;;5004447;28;20526;-51
2022/09/02 03:56:10;;;;;;;2.28;1.30;;;18.60;50.30;;;;;;5003664;28;20038;-48
2022/09/02 03:58:42;;;;;;;2.15;1.30;;;18.60;50.70;;;;;;5000599;28;20137;-49
2022/09/02 04:01:17;;;;;;;2.45;1.15;;;18.60;50.40;;;;;;5007158;28;20077;-51
2022/09/02 04:03:46;;;;;;;3.85;1.30;;;18.60;50.70;;;;;;4994568;28;20519;-49
2022/09/02 04:06:17;;;;;;;1.77;1.17;;;18.60;50.60;;;;;;4988866;28;20042;-51
2022/09/02 04:08:45;;;;;;;1.65;1.15;;;18.50;50.70;;;;;;5000364;28;20136;-53
2022/09/02 04:11:17;;;;;;;1.50;1.10;;;18.50;50.50;;;;;;5006704;28;20453;-53
2022/09/02 04:14:06;;;;;;;1.90;1.40;;;18.50;50.90;;;;;;5000997;28;20141;-49
2022/09/02 04:16:35;;;;;;;1.80;1.30;;;18.40;51.40;;;;;;4996255;28;20121;-50
2022/09/02 04:19:08;;;;;;;1.95;1.42;;;18.40;51.00;;;;;;5006254;28;20056;-51
2022/09/02 04:21:39;;;;;;;1.50;1.40;;;18.40;50.90;;;;;;4999981;28;20133;-52
2022/09/02 04:24:09;;;;;;;1.45;1.35;;;18.40;50.90;;;;;;4993484;28;20380;-53
2022/09/02 04:26:38;;;;;;;2.53;1.15;;;18.40;51.00;;;;;;5009700;28;20036;-51
2022/09/02 04:29:12;;;;;;;1.40;1.30;;;18.30;51.00;;;;;;5008043;28;20514;-51
2022/09/02 04:31:41;;;;;;;2.45;1.25;;;18.30;51.10;;;;;;5005210;28;20046;-53
2022/09/02 04:34:08;;;;;;;1.90;1.63;;;18.30;51.10;;;;;;4997256;28;20050;-50
2022/09/02 04:36:41;;;;;;;3.22;1.65;;;18.30;51.20;;;;;;4994916;28;20042;-51
2022/09/02 04:39:11;;;;;;;1.65;1.55;;;18.30;51.10;;;;;;5002433;28;20048;-48
2022/09/02 04:41:38;;;;;;;2.40;1.33;;;18.30;51.20;;;;;;5008842;28;20121;-53
2022/09/02 04:44:07;;;;;;;1.40;1.30;;;18.20;51.30;;;;;;5003108;28;20046;-52
2022/09/02 04:46:38;;;;;;;1.48;1.38;;;18.20;51.20;;;;;;5001930;28;20152;-53
2022/09/02 04:49:10;;;;;;;2.60;1.55;;;18.20;51.30;;;;;;5003217;28;20415;-53
2022/09/02 04:51:38;;;;;;;1.23;1.13;;;18.20;51.30;;;;;;5000317;28;20070;-54
2022/09/02 04:54:12;;;;;;;1.42;1.33;;;18.20;51.50;;;;;;4993388;28;20057;-49
2022/09/02 04:56:42;;;;;;;1.42;1.30;;;18.20;51.60;;;;;;5000292;28;21173;-49
2022/09/02 04:59:10;;;;;;;1.75;1.20;;;18.20;51.60;;;;;;4994644;28;20085;-53
2022/09/02 05:01:42;;;;;;;1.35;1.25;;;18.10;51.70;;;;;;4993794;28;20038;-51
2022/09/02 05:04:15;;;;;;;2.25;1.35;;;18.10;51.70;;;;;;5006161;28;20576;-53
2022/09/02 05:06:46;;;;;;;3.42;1.30;;;18.10;51.70;;;;;;5004152;28;20049;-51
2022/09/02 05:09:17;;;;;;;3.55;1.60;;;18.10;51.70;;;;;;4994343;28;20045;-48
2022/09/02 05:11:50;;;;;;;1.95;1.33;;;18.10;51.70;;;;;;5010291;28;20120;-48
2022/09/02 05:14:22;;;;;;;1.17;1.07;;;18.10;51.70;;;;;;5006424;28;20054;-50
2022/09/02 05:16:52;;;;;;;1.65;1.25;;;18.10;51.60;;;;;;4998241;28;20046;-50
2022/09/02 05:19:23;;;;;;;2.00;1.58;;;18.00;51.70;;;;;;4990812;28;20481;-52
2022/09/02 05:21:56;;;;;;;1.25;1.15;;;18.10;52.30;;;;;;4994431;28;20049;-53
2022/09/02 05:24:28;;;;;;;1.95;1.52;;;18.10;52.20;;;;;;5016219;28;20050;-48
2022/09/02 05:26:58;;;;;;;1.35;1.25;;;18.00;52.30;;;;;;4998627;28;20061;-49
2022/09/02 05:29:27;;;;;;;1.88;1.30;;;18.00;52.40;;;;;;5014004;28;20050;-53
2022/09/02 05:31:55;;;;;;;2.60;1.35;;;18.00;52.50;;;;;;4992230;28;20046;-51
2022/09/02 05:34:23;;;;;;;1.23;1.13;;;18.00;52.60;;;;;;5006759;28;20042;-53
2022/09/02 05:36:52;;;;;;;2.17;1.70;;;18.00;52.70;;;;;;5001336;28;20526;-50
2022/09/02 05:39:19;;;;;;;3.65;1.50;;;18.00;52.80;;;;;;5005937;28;20591;-51
2022/09/02 05:41:47;;;;;;;2.00;1.33;;;18.10;52.80;;;;;;4991278;28;20477;-53
2022/09/02 05:44:15;;;;;;;2.58;1.73;;;18.10;52.90;;;;;;5009205;28;20692;-50
2022/09/02 05:46:42;;;;;;;1.55;1.45;;;18.10;53.00;;;;;;5003026;28;20049;-53
2022/09/02 05:49:17;;;;;;;1.63;1.20;;;18.10;53.10;;;;;;5006220;28;20068;-49
2022/09/02 05:51:51;;;;;;;4.03;1.08;;;18.10;53.10;;;;;;5007148;28;20133;-49
2022/09/02 05:54:30;;;;;;;4.20;1.70;;;18.10;53.20;;;;;;5009372;28;20590;-51
2022/09/02 05:57:05;;;;;;;1.63;1.52;;;18.20;53.40;;;;;;4992474;28;20491;-49
2022/09/02 05:59:40;;;;;;;4.57;1.35;;;18.20;53.50;;;;;;5001096;28;20049;-51
2022/09/02 06:02:12;;;;;;;1.27;1.10;;;18.20;53.70;;;;;;4998636;28;20456;-49
2022/09/02 06:04:42;;;;;;;3.35;1.23;;;18.30;53.90;;;;;;5001614;28;20691;-52
2022/09/02 06:07:12;;;;;;;2.78;1.77;;;18.30;54.00;;;;;;4997576;28;20053;-50
2022/09/02 06:09:43;;;;;;;1.40;1.30;;;18.40;54.10;;;;;;4989514;28;20042;-53
2022/09/02 06:12:12;;;;;;;1.52;1.20;;;18.40;54.00;;;;;;5003493;28;20058;-51
2022/09/02 06:14:41;;;;;;;4.68;1.50;;;18.50;54.40;;;;;;5001134;28;20072;-54
2022/09/02 06:17:09;;;;;;;1.90;1.20;;;18.60;53.90;;;;;;4999117;28;20047;-49
2022/09/02 06:19:46;;;;;;;2.75;1.17;;;18.70;53.80;;;;;;5000007;28;20061;-52
2022/09/02 06:22:20;;;;;;;2.90;0.93;;;18.70;54.10;;;;;;4998634;28;20128;-53
2022/09/02 06:24:47;;;;;;;2.70;1.08;;;18.80;53.90;;;;;;4995671;28;20084;-54
2022/09/02 06:27:19;;;;;;;2.80;1.13;;;18.90;53.30;;;;;;5008504;28;20097;-53
2022/09/02 06:29:49;;;;;;;3.03;1.20;;;19.00;52.80;;;;;;5007357;28;20438;-52
2022/09/02 06:32:19;;;;;;;1.85;1.10;;;19.20;52.90;;;;;;5005157;28;20049;-54
2022/09/02 06:34:47;;;;;;;3.80;1.38;;;19.30;52.70;;;;;;5006166;28;20045;-53
2022/09/02 06:37:15;;;;;;;3.13;1.20;;;19.40;52.40;;;;;;4992738;28;20069;-49
2022/09/02 06:39:43;;;;;;;2.30;1.27;;;19.60;51.90;;;;;;5003623;28;20109;-50
2022/09/02 06:42:15;;;;;;;2.05;1.00;;;19.70;51.50;;;;;;4999836;28;20041;-52
2022/09/02 06:45:05;;;;;;;3.17;1.13;;;19.90;51.80;;;;;;4992888;28;20065;-53
2022/09/02 06:47:33;;;;;;;3.05;1.48;;;20.10;50.80;;;;;;4998370;28;20046;-53
2022/09/02 06:50:00;;;;;;;3.53;1.35;;;20.20;50.50;;;;;;4998995;28;20049;-51
2022/09/02 06:52:27;;;;;;;2.38;1.38;;;20.30;50.00;;;;;;4996783;28;20105;-52
2022/09/02 06:54:54;;;;;;;2.25;1.10;;;20.40;49.70;;;;;;4991285;28;20116;-50
2022/09/02 06:57:21;;;;;;;2.78;1.30;;;20.60;49.60;;;;;;4997298;28;20462;-54
2022/09/02 06:59:57;;;;;;;2.40;1.15;;;20.70;49.30;;;;;;5003520;28;20048;-53
2022/09/02 07:02:30;;;;;;;2.85;1.15;;;20.90;48.80;;;;;;5003722;28;20039;-50
2022/09/02 07:05:10;;;;;;;3.53;1.85;;;21.00;48.90;;;;;;4974874;28;20069;-54
2022/09/02 07:07:39;;;;;;;2.20;0.88;;;21.10;48.80;;;;;;4991545;28;20077;-53
2022/09/02 07:10:13;;;;;;;4.18;1.40;;;21.20;48.40;;;;;;5008286;28;20038;-54
2022/09/02 07:12:43;;;;;;;4.55;1.67;;;21.40;48.40;;;;;;4995495;28;20045;-54
2022/09/02 07:15:13;;;;;;;3.13;1.20;;;21.50;47.90;;;;;;4994491;28;20042;-50
2022/09/02 07:17:41;;;;;;;3.28;1.20;;;21.50;47.60;;;;;;5005908;28;20060;-51
2022/09/02 07:20:14;;;;;;;1.90;1.13;;;21.60;47.40;;;;;;4998760;28;20048;-51
2022/09/02 07:22:48;;;;;;;3.03;1.13;;;21.70;47.10;;;;;;4993199;28;20046;-51
2022/09/02 07:25:17;;;;;;;2.25;1.00;;;21.90;46.80;;;;;;4988825;28;20066;-48
2022/09/02 07:27:47;;;;;;;1.95;1.15;;;21.90;46.70;;;;;;5005744;28;20545;-54
2022/09/02 07:30:16;;;;;;;2.00;1.30;;;22.00;46.60;;;;;;4993299;28;20549;-54
2022/09/02 07:32:46;;;;;;;4.32;1.30;;;22.10;46.50;;;;;;5008488;28;20054;-54
2022/09/02 07:35:14;;;;;;;2.03;1.25;;;22.20;46.50;;;;;;5004535;28;20141;-51
2022/09/02 07:37:42;;;;;;;3.20;1.40;;;22.30;46.80;;;;;;4999495;28;20053;-50
2022/09/02 07:40:10;;;;;;;2.22;1.30;;;22.40;45.90;;;;;;5006029;28;20050;-52
2022/09/02 07:42:37;;;;;;;2.90;1.30;;;22.40;45.40;;;;;;5007984;28;20053;-51
2022/09/02 07:45:05;;;;;;;2.40;1.13;;;22.60;45.30;;;;;;5002409;28;20039;-50
2022/09/02 07:47:32;;;;;;;1.73;1.23;;;22.60;45.30;;;;;;4986095;28;20601;-52
2022/09/02 07:50:01;;;;;;;2.92;1.40;;;22.70;45.20;;;;;;5000148;28;20043;-54
2022/09/02 07:52:55;;;;;;;4.47;1.35;;;22.80;45.10;;;;;;5000875;28;20042;-54
2022/09/02 07:55:24;;;;;;;2.15;1.27;;;22.90;45.20;;;;;;5019368;28;20050;-49
2022/09/02 07:57:53;;;;;;;2.53;1.40;;;22.90;45.10;;;;;;4992212;28;20057;-51
2022/09/02 08:00:26;;;;;;;1.40;1.30;;;23.00;44.70;;;;;;4989461;28;20101;-52
2022/09/02 08:02:55;;;;;;;1.83;1.38;;;23.10;45.00;;;;;;4988950;28;20066;-50
2022/09/02 08:05:27;;;;;;;;;;;23.20;44.80;;;;;;5005050;28;20053;-49
2022/09/02 08:07:53;;;;;;;4.38;1.45;;;23.30;44.80;;;;;;5009108;28;19925;-54
2022/09/02 08:10:24;;;;;;;2.58;1.20;;;23.30;44.30;;;;;;4989344;28;20571;-54
2022/09/02 08:12:51;;;;;;;5.45;1.27;;;23.40;44.20;;;;;;4991750;28;20038;-54
2022/09/02 08:15:21;;;;;;;1.67;1.30;;;23.40;44.00;;;;;;5006925;28;20046;-53
2022/09/02 08:17:48;;;;;;;1.83;1.48;;;23.50;43.90;;;;;;4995028;28;20581;-54
2022/09/02 08:20:17;;;;;;;2.47;1.20;;;23.60;43.70;;;;;;5000168;28;20100;-54
2022/09/02 08:22:44;;;;;;;1.70;1.30;;;23.50;43.60;;;;;;4997828;28;20042;-54
2022/09/02 08:25:21;;;;;;;2.35;1.55;;;23.60;43.60;;;;;;4999507;28;20052;-51
2022/09/02 08:27:48;;;;;;;5.47;1.63;;;23.60;43.70;;;;;;5001316;28;20046;-54
2022/09/02 08:30:15;;;;;;;1.67;1.20;;;23.70;43.40;;;;;;5008380;28;20469;-54
2022/09/02 08:32:42;;;;;;;2.35;1.48;;;23.70;43.30;;;;;;5003416;28;20707;-54
2022/09/02 08:35:09;;;;;;;2.63;1.40;;;23.70;43.00;;;;;;5000161;28;20055;-49
2022/09/02 08:37:37;;;;;;;3.22;1.33;;;23.70;43.00;;;;;;5002919;28;20050;-54
2022/09/02 08:40:08;;;;;;;2.40;1.50;;;23.70;42.90;;;;;;5002651;28;20045;-53
2022/09/02 08:42:48;;;;;;;4.43;1.52;;;23.70;43.10;;;;;;5008322;28;20464;-51
2022/09/02 08:45:24;;;;;;;1.83;1.60;;;23.70;43.00;;;;;;5000297;28;20137;-51
2022/09/02 08:48:07;;;;;;;2.08;1.20;;;23.70;43.80;;;;;;5005392;28;20053;-53
2022/09/02 08:50:36;;;;;;;1.83;1.25;;;23.70;43.20;;;;;;5000099;28;20143;-52
2022/09/02 08:53:31;;;;;;;2.83;1.42;;;23.70;43.10;;;;;;5005053;28;20049;-52
2022/09/02 08:56:01;;;;;;;3.13;1.27;;;23.70;43.10;;;;;;4989077;28;20681;-54
2022/09/02 08:58:40;;;;;;;4.00;2.10;;;23.70;43.30;;;;;;4997658;28;20566;-52
2022/09/02 09:01:37;;;;;;;3.92;1.67;;;23.70;43.10;;;;;;5000257;28;20580;-51
2022/09/02 09:04:11;;;;;;;2.50;1.65;;;23.70;42.80;;;;;;5003928;28;20046;-52
2022/09/02 09:06:59;;;;;;;3.78;1.48;;;23.70;43.10;;;;;;5001839;28;20073;-54
2022/09/02 09:09:34;;;;;;;3.55;1.60;;;23.70;43.10;;;;;;5005156;28;20050;-52
2022/09/02 09:12:04;;;;;;;1.55;1.45;;;23.80;43.00;;;;;;5009738;28;20398;-50
2022/09/02 09:14:31;;;;;;;1.40;1.30;;;23.80;42.80;;;;;;5006097;28;20042;-53
2022/09/02 09:17:01;;;;;;;4.00;1.52;;;23.80;42.70;;;;;;5007641;28;20453;-54
2022/09/02 09:20:03;;;;;;;3.70;1.60;;;23.80;43.10;;;;;;5007026;28;20081;-52
2022/09/02 09:22:36;;;;;;;2.40;1.48;;;23.90;42.70;;;;;;4984056;28;20062;-53
2022/09/02 09:25:14;;;;;;;4.65;1.63;;;24.00;42.40;;;;;;4995892;28;20169;-53
2022/09/02 09:27:41;;;;;;;2.45;1.52;;;24.00;42.00;;;;;;5007171;28;20439;-50
2022/09/02 09:30:10;;;;;;;3.55;1.55;;;24.10;42.10;;;;;;5010673;28;20046;-54
2022/09/02 09:32:53;;;;;;;1.45;1.35;;;24.10;42.10;;;;;;5003480;28;20049;-54
2022/09/02 09:35:21;;;;;;;2.70;1.50;;;24.20;42.50;;;;;;4997407;28;20038;-53
2022/09/02 09:37:49;;;;;;;3.75;1.25;;;24.20;41.70;;;;;;5001852;28;20054;-54
2022/09/02 09:40:22;;;;;;;4.30;1.38;;;24.20;41.30;;;;;;4997798;28;20053;-52
2022/09/02 09:43:02;;;;;;;4.10;1.60;;;24.30;41.50;;;;;;5007629;28;20426;-54
2022/09/02 09:45:46;;;;;;;3.70;1.88;;;24.30;41.60;;;;;;5009312;28;20137;-51
2022/09/02 09:48:17;;;;;;;1.25;1.15;;;24.40;41.10;;;;;;5005263;28;20056;-50
2022/09/02 09:51:04;;;;;;;3.05;1.45;;;24.40;41.40;;;;;;5002911;28;20046;-53
2022/09/02 09:53:32;;;;;;;5.47;1.50;;;24.50;41.40;;;;;;5001575;28;20514;-54
2022/09/02 09:56:04;;;;;;;2.53;1.30;;;24.50;41.00;;;;;;5004334;28;20042;-54
2022/09/02 09:58:39;;;;;;;6.18;2.05;;;24.50;40.90;;;;;;5001640;28;20406;-49
2022/09/02 10:01:16;;;;;;;1.90;1.40;;;24.60;40.60;;;;;;4994889;28;20046;-51
2022/09/02 10:04:08;;;;;;;5.10;1.83;;;24.70;40.60;;;;;;5005688;28;20495;-54
2022/09/02 10:06:55;;;;;;;3.35;1.52;;;24.70;40.80;;;;;;5002555;28;20093;-53
2022/09/02 10:09:31;;;;;;;3.10;1.63;;;24.80;40.70;;;;;;4998290;28;20046;-54
2022/09/02 10:12:04;;;;;;;3.13;1.63;;;24.90;40.60;;;;;;4990842;28;20450;-53
2022/09/02 10:14:46;;;;;;;1.98;1.15;;;24.90;40.20;;;;;;4996742;28;20569;-54
2022/09/02 10:17:25;;;;;;;1.88;1.27;;;25.00;39.80;;;;;;4993318;28;20062;-54
2022/09/02 10:20:13;;;;;;;2.78;1.30;;;25.10;39.20;;;;;;4990585;28;20132;-53
2022/09/02 10:23:09;;;;;;;4.75;1.65;;;25.10;39.50;;;;;;4999179;28;20469;-54
2022/09/02 10:25:51;;;;;;;2.35;1.20;;;25.20;39.60;;;;;;5001060;28;20271;-53
2022/09/02 10:28:55;;;;;;;2.37;1.13;;;25.20;39.10;;;;;;5003729;28;20522;-52
2022/09/02 10:31:52;;;;;;;5.55;1.50;;;25.30;39.20;;;;;;5002459;28;20280;-54
2022/09/02 10:34:48;;;;;;;4.65;1.70;;;25.30;39.50;;;;;;4988699;28;20050;-53
2022/09/02 10:37:22;;;;;;;3.10;1.35;;;25.40;39.10;;;;;;5007545;28;20030;-53
2022/09/02 10:40:12;;;;;;;3.10;1.60;;;25.40;38.80;;;;;;4998067;28;20129;-53
2022/09/02 10:43:05;;;;;;;2.58;1.30;;;25.50;38.90;;;;;;4992540;28;20061;-55
2022/09/02 10:45:42;;;;;;;1.95;1.33;;;25.50;38.00;;;;;;5001376;28;20086;-50
2022/09/02 10:48:30;;;;;;;1.42;1.33;;;25.60;37.40;;;;;;5001024;28;20048;-52
2022/09/02 10:51:09;;;;;;;2.75;1.20;;;25.60;37.70;;;;;;5009722;28;20053;-54
2022/09/02 10:53:52;;;;;;;2.95;1.40;;;25.70;37.10;;;;;;5006535;28;20466;-54
2022/09/02 10:56:24;;;;;;;2.25;1.35;;;25.70;37.30;;;;;;4998882;28;20042;-53
2022/09/02 10:58:56;;;;;;;1.27;1.20;;;25.80;37.00;;;;;;4999194;28;20050;-54
2022/09/02 11:02:04;;;;;;;1.15;0.98;;;25.80;37.50;;;;;;4992774;28;20042;-53
2022/09/02 11:04:46;;;;;;;1.40;1.10;;;26.00;37.10;;;;;;4986921;28;20529;-54
2022/09/02 11:07:19;;;;;;;2.78;1.50;;;26.00;36.40;;;;;;5001726;28;20045;-54
2022/09/02 11:09:55;;;;;;;1.67;1.10;;;26.10;36.60;;;;;;5010245;28;20045;-51
2022/09/02 11:12:25;;;;;;;2.35;1.50;;;26.20;36.30;;;;;;5005903;28;20042;-50
2022/09/02 11:15:28;;;;;;;2.38;1.35;;;26.20;35.90;;;;;;5003326;28;20050;-53
2022/09/02 11:18:35;;;;;;;4.57;1.13;;;26.30;35.80;;;;;;4989811;28;20054;-53
2022/09/02 11:21:26;;;;;;;1.90;1.20;;;26.50;36.80;;;;;;4990073;28;20054;-54
2022/09/02 11:24:27;;;;;;;2.47;1.13;;;26.50;35.40;;;;;;4999694;28;20716;-53
2022/09/02 11:27:28;;;;;;;1.33;1.00;;;26.60;35.50;;;;;;5008023;28;20057;-51
2022/09/02 11:30:17;;;;;;;3.47;1.70;;;26.70;35.50;;;;;;4999819;28;20042;-54
2022/09/02 11:32:49;;;;;;;3.30;1.10;;;26.80;34.50;;;;;;4990239;28;20038;-55
2022/09/02 11:35:19;;;;;;;;;;;26.90;35.20;;;;;;5003128;28;20409;-54
2022/09/02 11:37:53;;;;;;;1.63;1.02;;;27.00;35.80;;;;;;5009269;28;19979;-54
2022/09/02 11:40:37;;;;;;;1.90;1.02;;;27.10;34.20;;;;;;4999900;28;20065;-55
2022/09/02 11:43:35;;;;;;;3.40;1.20;;;27.20;33.50;;;;;;4999471;28;20049;-54
2022/09/02 11:46:13;;;;;;;2.55;1.35;;;27.20;33.30;;;;;;5010686;28;20459;-54
2022/09/02 11:49:06;;;;;;;2.65;1.02;;;27.40;33.10;;;;;;5006084;28;20494;-54
2022/09/02 11:52:04;;;;;;;4.28;1.20;;;27.50;32.60;;;;;;5004004;28;20072;-52
2022/09/02 11:54:39;;;;;;;3.08;1.10;;;27.60;33.10;;;;;;4989543;28;20042;-55
2022/09/02 11:57:12;;;;;;;3.10;1.02;;;27.60;32.30;;;;;;4993400;28;20051;-54
2022/09/02 11:59:51;;;;;;;2.63;1.15;;;27.70;33.00;;;;;;5000555;28;20081;-55
2022/09/02 12:02:34;;;;;;;6.65;1.77;;;27.70;32.20;;;;;;5000870;28;20057;-54
2022/09/02 12:05:28;;;;;;;3.60;1.65;;;27.80;32.00;;;;;;5006473;28;20045;-55
2022/09/02 12:07:56;;;;;;;2.60;1.15;;;27.90;32.30;;;;;;4998031;28;20046;-54
2022/09/02 12:10:41;;;;;;;2.10;1.00;;;27.90;32.30;;;;;;4997727;28;20070;-53
2022/09/02 12:13:33;;;;;;;1.50;1.00;;;28.00;31.30;;;;;;5002245;28;20050;-53
2022/09/02 12:16:15;;;;;;;3.15;0.90;;;28.00;31.30;;;;;;4999588;28;20049;-54
2022/09/02 12:18:43;;;;;;;5.00;1.67;;;28.10;31.10;;;;;;4994430;28;20052;-54
2022/09/02 12:21:14;;;;;;;4.50;1.00;;;28.10;31.40;;;;;;5006153;28;20042;-53
2022/09/02 12:23:52;;;;;;;5.22;0.88;;;28.20;31.50;;;;;;4987327;28;20038;-52
2022/09/02 12:26:24;;;;;;;4.10;1.20;;;28.20;31.60;;;;;;4990816;28;20046;-54
2022/09/02 12:28:53;;;;;;;1.42;0.73;;;28.40;31.40;;;;;;4989982;28;20061;-52
2022/09/02 12:31:42;;;;;;;2.88;1.27;;;28.40;30.70;;;;;;5001309;28;20454;-52
2022/09/02 12:34:23;;;;;;;3.97;1.00;;;28.50;30.70;;;;;;4999092;28;20042;-52
2022/09/02 12:36:54;;;;;;;2.85;0.80;;;28.60;30.50;;;;;;4999764;28;20112;-52
2022/09/02 12:39:22;;;;;;;1.05;0.80;;;28.70;30.70;;;;;;4998769;28;20046;-52
2022/09/02 12:42:21;;;;;;;3.28;1.15;;;28.70;30.90;;;;;;4995525;28;20047;-53
2022/09/02 12:45:03;;;;;;;6.45;0.70;;;28.80;30.60;;;;;;5006474;28;20100;-53
2022/09/02 12:47:31;;;;;;;;;;;28.90;30.00;;;;;;5002094;28;20538;-51
2022/09/02 12:50:17;;;;;;;2.40;0.85;;;29.00;30.50;;;;;;5000609;28;19937;-50
2022/09/02 12:52:48;;;;;;;1.17;0.50;;;29.10;30.00;;;;;;4999278;28;20121;-53
2022/09/02 12:55:27;;;;;;;3.50;1.15;;;29.10;29.90;;;;;;5003855;28;20092;-53
2022/09/02 12:58:05;;;;;;;3.25;0.90;;;29.20;29.70;;;;;;4990534;28;20057;-53
2022/09/02 13:01:06;;;;;;;2.47;1.08;;;29.30;29.60;;;;;;4999756;28;20053;-54
2022/09/02 13:03:54;;;;;;;0.80;0.77;;;29.40;29.80;;;;;;5001020;28;20043;-54
2022/09/02 13:06:32;;;;;;;2.40;0.90;;;29.50;29.90;;;;;;5001454;28;20043;-54
2022/09/02 13:09:04;;;;;;;0.90;0.90;;;29.50;29.20;;;;;;4995365;28;20076;-53
2022/09/02 13:12:09;;;;;;;1.90;0.80;;;29.60;29.60;;;;;;4997696;28;20069;-54
2022/09/02 13:14:53;;;;;;;3.38;1.52;;;29.80;29.40;;;;;;5001967;28;20522;-54
2022/09/02 13:17:25;;;;;;;1.85;0.98;;;29.90;29.50;;;;;;5007989;28;20045;-55
2022/09/02 13:20:31;;;;;;;0.88;0.70;;;30.00;29.50;;;;;;5010518;28;20498;-54
2022/09/02 13:23:25;;;;;;;2.70;0.85;;;30.20;29.00;;;;;;5002063;28;20042;-54
2022/09/02 13:26:24;;;;;;;0.93;0.80;;;30.40;28.60;;;;;;5000991;28;20054;-55